AAR581 RKSI-VVPQ
Flight info
| Callsign | AAR581 |
|---|---|
| Flight time | 5h 34m |
| Altitude | 30000 |
| Route | BOPTA3H BOPTA Z51 BEDES Y711 MUGUS Y742 SALMI Q11 METRO/N0475F320 Q11 TACLE Q12 KABAM N892 MIGUG/K0874F320 N892 MESOX/K0872F340 L628 VEPAM/K0874F320 L642 SOSPA W15 AC/K0846F280 W1 TSH W17 TUNPO TUNPO1E |
| Aircraft | A321/M-SDE3FGHIRWY/LB1 |
Departure
| Time | 2026-05-05 01:27 |
|---|---|
| Airport | Incheon International Airport (RKSI) |
Arrival
| Time | 2026-05-05 07:01 |
|---|---|
| Airport | Phú Quốc International Airport (VVPQ) |
| Time | Latitude | Longitude | Altitude | Speed | Heading |
|---|---|---|---|---|---|
| 2026-05-05 00:43 | 37.45386 | 126.44005 | 32 ft | 0 kts | 112° |
| 2026-05-05 00:54 | 37.45392 | 126.43987 | 32 ft | 4 kts | 123° |
| 2026-05-05 00:54 | 37.45409 | 126.43963 | 30 ft | 4 kts | 148° |
| 2026-05-05 00:54 | 37.45434 | 126.43950 | 30 ft | 4 kts | 172° |
| 2026-05-05 00:54 | 37.45460 | 126.43950 | 31 ft | 4 kts | 195° |
| 2026-05-05 00:55 | 37.45483 | 126.43963 | 29 ft | 3 kts | 232° |
| 2026-05-05 00:55 | 37.45484 | 126.43966 | 32 ft | 0 kts | 235° |
| 2026-05-05 01:00 | 37.45483 | 126.43964 | 32 ft | 1 kts | 234° |
| 2026-05-05 01:00 | 37.45470 | 126.43941 | 32 ft | 5 kts | 234° |
| 2026-05-05 01:00 | 37.45437 | 126.43884 | 32 ft | 11 kts | 233° |
| 2026-05-05 01:01 | 37.45382 | 126.43795 | 32 ft | 14 kts | 231° |
| 2026-05-05 01:01 | 37.45325 | 126.43699 | 32 ft | 14 kts | 234° |
| 2026-05-05 01:01 | 37.45257 | 126.43634 | 32 ft | 13 kts | 172° |
| 2026-05-05 01:01 | 37.45183 | 126.43688 | 32 ft | 12 kts | 143° |
| 2026-05-05 01:02 | 37.45117 | 126.43751 | 32 ft | 12 kts | 144° |
| 2026-05-05 01:02 | 37.45051 | 126.43811 | 32 ft | 12 kts | 143° |
| 2026-05-05 01:02 | 37.44985 | 126.43868 | 32 ft | 11 kts | 145° |
| 2026-05-05 01:02 | 37.44922 | 126.43924 | 33 ft | 11 kts | 144° |
| 2026-05-05 01:03 | 37.44860 | 126.43980 | 32 ft | 11 kts | 143° |
| 2026-05-05 01:03 | 37.44798 | 126.44035 | 32 ft | 11 kts | 147° |
| 2026-05-05 01:03 | 37.44736 | 126.44087 | 32 ft | 11 kts | 146° |
| 2026-05-05 01:03 | 37.44675 | 126.44141 | 30 ft | 11 kts | 144° |
| 2026-05-05 01:04 | 37.44614 | 126.44196 | 32 ft | 11 kts | 144° |
| 2026-05-05 01:04 | 37.44603 | 126.44206 | 32 ft | 0 kts | 144° |
| 2026-05-05 01:10 | 37.44602 | 126.44207 | 32 ft | 0 kts | 144° |
| 2026-05-05 01:10 | 37.44596 | 126.44213 | 31 ft | 3 kts | 144° |
| 2026-05-05 01:11 | 37.44562 | 126.44243 | 32 ft | 9 kts | 143° |
| 2026-05-05 01:11 | 37.44558 | 126.44330 | 32 ft | 14 kts | 55° |
| 2026-05-05 01:11 | 37.44652 | 126.44315 | 30 ft | 16 kts | 323° |
| 2026-05-05 01:11 | 37.44741 | 126.44233 | 32 ft | 16 kts | 324° |
| 2026-05-05 01:12 | 37.44829 | 126.44155 | 31 ft | 15 kts | 324° |
| 2026-05-05 01:12 | 37.44915 | 126.44079 | 31 ft | 15 kts | 326° |
| 2026-05-05 01:12 | 37.44998 | 126.44005 | 31 ft | 15 kts | 324° |
| 2026-05-05 01:12 | 37.45080 | 126.43931 | 32 ft | 14 kts | 326° |
| 2026-05-05 01:13 | 37.45160 | 126.43860 | 31 ft | 14 kts | 324° |
| 2026-05-05 01:13 | 37.45239 | 126.43790 | 32 ft | 14 kts | 325° |
| 2026-05-05 01:13 | 37.45317 | 126.43722 | 31 ft | 13 kts | 324° |
| 2026-05-05 01:13 | 37.45390 | 126.43655 | 31 ft | 13 kts | 325° |
| 2026-05-05 01:14 | 37.45464 | 126.43590 | 32 ft | 13 kts | 325° |
| 2026-05-05 01:14 | 37.45535 | 126.43526 | 32 ft | 12 kts | 323° |
| 2026-05-05 01:14 | 37.45605 | 126.43464 | 30 ft | 12 kts | 325° |
| 2026-05-05 01:14 | 37.45672 | 126.43404 | 32 ft | 12 kts | 324° |
| 2026-05-05 01:15 | 37.45738 | 126.43344 | 32 ft | 12 kts | 326° |
| 2026-05-05 01:15 | 37.45804 | 126.43287 | 32 ft | 11 kts | 325° |
| 2026-05-05 01:15 | 37.45868 | 126.43230 | 31 ft | 11 kts | 324° |
| 2026-05-05 01:15 | 37.45931 | 126.43176 | 32 ft | 11 kts | 324° |
| 2026-05-05 01:16 | 37.45991 | 126.43120 | 32 ft | 11 kts | 323° |
| 2026-05-05 01:16 | 37.46003 | 126.43110 | 32 ft | 11 kts | 325° |
| 2026-05-05 01:16 | 37.46064 | 126.43055 | 31 ft | 11 kts | 326° |
| 2026-05-05 01:16 | 37.46124 | 126.43003 | 31 ft | 10 kts | 324° |
| 2026-05-05 01:17 | 37.46181 | 126.42950 | 30 ft | 10 kts | 323° |
| 2026-05-05 01:17 | 37.46217 | 126.42919 | 32 ft | 10 kts | 325° |
| 2026-05-05 01:17 | 37.46276 | 126.42868 | 32 ft | 10 kts | 326° |
| 2026-05-05 01:17 | 37.46311 | 126.42837 | 31 ft | 10 kts | 324° |
| 2026-05-05 01:18 | 37.46356 | 126.42798 | 31 ft | 10 kts | 324° |
| 2026-05-05 01:18 | 37.46410 | 126.42750 | 31 ft | 10 kts | 324° |
| 2026-05-05 01:18 | 37.46463 | 126.42703 | 32 ft | 9 kts | 324° |
| 2026-05-05 01:18 | 37.46516 | 126.42655 | 32 ft | 9 kts | 324° |
| 2026-05-05 01:19 | 37.46568 | 126.42609 | 32 ft | 10 kts | 324° |
| 2026-05-05 01:19 | 37.46625 | 126.42557 | 31 ft | 11 kts | 324° |
| 2026-05-05 01:19 | 37.46692 | 126.42497 | 29 ft | 14 kts | 324° |
| 2026-05-05 01:19 | 37.46777 | 126.42422 | 32 ft | 15 kts | 324° |
| 2026-05-05 01:20 | 37.46862 | 126.42347 | 32 ft | 15 kts | 324° |
| 2026-05-05 01:20 | 37.46945 | 126.42272 | 31 ft | 15 kts | 324° |
| 2026-05-05 01:20 | 37.47025 | 126.42201 | 32 ft | 14 kts | 324° |
| 2026-05-05 01:20 | 37.47105 | 126.42130 | 31 ft | 14 kts | 324° |
| 2026-05-05 01:21 | 37.47183 | 126.42061 | 32 ft | 14 kts | 324° |
| 2026-05-05 01:21 | 37.47259 | 126.41992 | 32 ft | 13 kts | 324° |
| 2026-05-05 01:21 | 37.47327 | 126.41919 | 30 ft | 13 kts | 298° |
| 2026-05-05 01:21 | 37.47328 | 126.41882 | 32 ft | 1 kts | 246° |
| 2026-05-05 01:22 | 37.47325 | 126.41876 | 30 ft | 1 kts | 246° |
| 2026-05-05 01:22 | 37.47313 | 126.41845 | 32 ft | 7 kts | 239° |
| 2026-05-05 01:22 | 37.47272 | 126.41771 | 32 ft | 13 kts | 234° |
| 2026-05-05 01:22 | 37.47220 | 126.41677 | 33 ft | 5 kts | 235° |
| 2026-05-05 01:23 | 37.47200 | 126.41643 | 33 ft | 4 kts | 223° |
| 2026-05-05 01:23 | 37.47180 | 126.41645 | 33 ft | 2 kts | 164° |
| 2026-05-05 01:23 | 37.47171 | 126.41652 | 33 ft | 0 kts | 147° |
| 2026-05-05 01:26 | 37.47122 | 126.41695 | 34 ft | 36 kts | 144° |
| 2026-05-05 01:26 | 37.46712 | 126.42061 | 32 ft | 106 kts | 144° |
| 2026-05-05 01:26 | 37.45963 | 126.42728 | 32 ft | 159 kts | 144° |
| 2026-05-05 01:26 | 37.44991 | 126.43577 | 555 ft | 167 kts | 147° |
| 2026-05-05 01:27 | 37.43992 | 126.44353 | 1319 ft | 171 kts | 152° |
| 2026-05-05 01:27 | 37.42958 | 126.45121 | 1636 ft | 180 kts | 153° |
| 2026-05-05 01:27 | 37.41824 | 126.45967 | 1770 ft | 198 kts | 153° |
| 2026-05-05 01:27 | 37.40588 | 126.46901 | 1905 ft | 217 kts | 152° |
| 2026-05-05 01:28 | 37.39238 | 126.47930 | 2014 ft | 238 kts | 152° |
| 2026-05-05 01:28 | 37.37687 | 126.48746 | 2368 ft | 245 kts | 168° |
| 2026-05-05 01:28 | 37.36048 | 126.49281 | 2928 ft | 248 kts | 168° |
| 2026-05-05 01:28 | 37.34374 | 126.49845 | 3523 ft | 251 kts | 167° |
| 2026-05-05 01:29 | 37.32681 | 126.50420 | 4068 ft | 254 kts | 167° |
| 2026-05-05 01:29 | 37.30964 | 126.51005 | 4627 ft | 257 kts | 167° |
| 2026-05-05 01:29 | 37.29223 | 126.51595 | 5188 ft | 260 kts | 167° |
| 2026-05-05 01:29 | 37.27496 | 126.52328 | 5711 ft | 266 kts | 155° |
| 2026-05-05 01:30 | 37.25851 | 126.53443 | 6208 ft | 271 kts | 154° |
| 2026-05-05 01:30 | 37.24184 | 126.54583 | 6727 ft | 274 kts | 154° |
| 2026-05-05 01:30 | 37.22501 | 126.55729 | 7215 ft | 277 kts | 154° |
| 2026-05-05 01:30 | 37.20797 | 126.56885 | 7741 ft | 279 kts | 154° |
| 2026-05-05 01:31 | 37.19102 | 126.58031 | 8260 ft | 282 kts | 154° |
| 2026-05-05 01:31 | 37.17367 | 126.59198 | 8786 ft | 284 kts | 154° |
| 2026-05-05 01:31 | 37.15620 | 126.60377 | 9303 ft | 286 kts | 153° |
| 2026-05-05 01:31 | 37.13852 | 126.61556 | 9831 ft | 288 kts | 157° |
| 2026-05-05 01:32 | 37.11950 | 126.62350 | 10273 ft | 291 kts | 171° |
| 2026-05-05 01:32 | 37.09882 | 126.62540 | 10392 ft | 306 kts | 182° |
| 2026-05-05 01:32 | 37.07698 | 126.62492 | 10524 ft | 322 kts | 182° |
| 2026-05-05 01:32 | 37.05406 | 126.62446 | 10637 ft | 337 kts | 181° |
| 2026-05-05 01:33 | 37.03009 | 126.62407 | 10765 ft | 352 kts | 181° |
| 2026-05-05 01:33 | 37.00546 | 126.62375 | 10881 ft | 366 kts | 181° |
| 2026-05-05 01:33 | 36.97953 | 126.62348 | 11001 ft | 379 kts | 181° |
| 2026-05-05 01:33 | 36.95274 | 126.62348 | 11179 ft | 390 kts | 180° |
| 2026-05-05 01:34 | 36.92558 | 126.62380 | 11568 ft | 394 kts | 180° |
| 2026-05-05 01:34 | 36.89795 | 126.62426 | 12031 ft | 397 kts | 179° |
| 2026-05-05 01:34 | 36.87031 | 126.62445 | 12512 ft | 399 kts | 181° |
| 2026-05-05 01:34 | 36.84245 | 126.62356 | 12996 ft | 401 kts | 182° |
| 2026-05-05 01:35 | 36.81454 | 126.62193 | 13513 ft | 402 kts | 182° |
| 2026-05-05 01:35 | 36.78652 | 126.61995 | 14006 ft | 404 kts | 182° |
| 2026-05-05 01:35 | 36.75869 | 126.61801 | 14396 ft | 407 kts | 181° |
| 2026-05-05 01:35 | 36.72996 | 126.61954 | 14790 ft | 410 kts | 172° |
| 2026-05-05 01:36 | 36.70243 | 126.62698 | 15160 ft | 412 kts | 164° |
| 2026-05-05 01:36 | 36.67473 | 126.63636 | 15576 ft | 413 kts | 164° |
| 2026-05-05 01:36 | 36.64694 | 126.64575 | 15977 ft | 416 kts | 164° |
| 2026-05-05 01:36 | 36.61891 | 126.65523 | 16323 ft | 419 kts | 164° |
| 2026-05-05 01:37 | 36.59025 | 126.66256 | 16634 ft | 423 kts | 175° |
| 2026-05-05 01:37 | 36.56083 | 126.66036 | 16974 ft | 427 kts | 190° |
| 2026-05-05 01:37 | 36.53168 | 126.65252 | 17331 ft | 430 kts | 191° |
| 2026-05-05 01:37 | 36.50241 | 126.64429 | 17691 ft | 432 kts | 192° |
| 2026-05-05 01:38 | 36.47303 | 126.63591 | 18024 ft | 435 kts | 192° |
| 2026-05-05 01:38 | 36.44379 | 126.62759 | 18356 ft | 437 kts | 191° |
| 2026-05-05 01:38 | 36.41410 | 126.61918 | 18682 ft | 439 kts | 192° |
| 2026-05-05 01:38 | 36.38435 | 126.61079 | 18988 ft | 440 kts | 192° |
| 2026-05-05 01:39 | 36.35431 | 126.60237 | 19285 ft | 442 kts | 192° |
| 2026-05-05 01:39 | 36.32427 | 126.59393 | 19580 ft | 444 kts | 192° |
| 2026-05-05 01:39 | 36.29405 | 126.58547 | 19864 ft | 446 kts | 192° |
| 2026-05-05 01:39 | 36.26374 | 126.57699 | 20182 ft | 447 kts | 192° |
| 2026-05-05 01:40 | 36.23339 | 126.56852 | 20531 ft | 448 kts | 193° |
| 2026-05-05 01:40 | 36.20292 | 126.56000 | 20824 ft | 450 kts | 193° |
| 2026-05-05 01:40 | 36.17234 | 126.55147 | 21103 ft | 452 kts | 193° |
| 2026-05-05 01:40 | 36.14202 | 126.54299 | 21383 ft | 453 kts | 193° |
| 2026-05-05 01:41 | 36.11118 | 126.53439 | 21646 ft | 455 kts | 193° |
| 2026-05-05 01:41 | 36.08024 | 126.52582 | 21914 ft | 457 kts | 193° |
| 2026-05-05 01:41 | 36.04914 | 126.51723 | 22184 ft | 458 kts | 194° |
| 2026-05-05 01:41 | 36.01799 | 126.50862 | 22453 ft | 460 kts | 194° |
| 2026-05-05 01:42 | 35.98675 | 126.49995 | 22725 ft | 461 kts | 194° |
| 2026-05-05 01:42 | 35.95535 | 126.49122 | 22968 ft | 463 kts | 194° |
| 2026-05-05 01:42 | 35.92387 | 126.48247 | 23223 ft | 465 kts | 194° |
| 2026-05-05 01:42 | 35.89264 | 126.47381 | 23473 ft | 467 kts | 194° |
| 2026-05-05 01:43 | 35.86088 | 126.46500 | 23735 ft | 469 kts | 194° |
| 2026-05-05 01:43 | 35.82910 | 126.45622 | 24017 ft | 468 kts | 194° |
| 2026-05-05 01:43 | 35.79731 | 126.44746 | 24342 ft | 467 kts | 194° |
| 2026-05-05 01:43 | 35.76565 | 126.43875 | 24674 ft | 466 kts | 194° |
| 2026-05-05 01:44 | 35.73405 | 126.43001 | 24994 ft | 465 kts | 194° |
| 2026-05-05 01:44 | 35.70253 | 126.42127 | 25307 ft | 464 kts | 194° |
| 2026-05-05 01:44 | 35.67116 | 126.41238 | 25643 ft | 461 kts | 198° |
| 2026-05-05 01:44 | 35.64012 | 126.40279 | 25990 ft | 459 kts | 199° |
| 2026-05-05 01:45 | 35.60942 | 126.39250 | 26355 ft | 456 kts | 201° |
| 2026-05-05 01:45 | 35.57953 | 126.38169 | 26721 ft | 452 kts | 202° |
| 2026-05-05 01:45 | 35.54966 | 126.37010 | 27115 ft | 448 kts | 203° |
| 2026-05-05 01:45 | 35.52030 | 126.35791 | 27502 ft | 444 kts | 205° |
| 2026-05-05 01:46 | 35.49141 | 126.34514 | 27918 ft | 439 kts | 206° |
| 2026-05-05 01:46 | 35.46305 | 126.33181 | 28344 ft | 434 kts | 207° |
| 2026-05-05 01:46 | 35.43530 | 126.31801 | 28778 ft | 428 kts | 208° |
| 2026-05-05 01:46 | 35.40808 | 126.30369 | 29219 ft | 422 kts | 210° |
| 2026-05-05 01:47 | 35.38150 | 126.28894 | 29678 ft | 416 kts | 211° |
| 2026-05-05 01:47 | 35.35557 | 126.27379 | 30139 ft | 410 kts | 212° |
| 2026-05-05 01:47 | 35.33024 | 126.25823 | 30532 ft | 403 kts | 214° |
| 2026-05-05 01:47 | 35.30565 | 126.24236 | 30934 ft | 396 kts | 215° |
| 2026-05-05 01:48 | 35.28206 | 126.22640 | 31325 ft | 389 kts | 217° |
| 2026-05-05 01:48 | 35.25887 | 126.20994 | 31705 ft | 381 kts | 218° |
| 2026-05-05 01:48 | 35.23647 | 126.19328 | 32082 ft | 373 kts | 219° |
| 2026-05-05 01:48 | 35.21484 | 126.17640 | 32446 ft | 365 kts | 221° |
| 2026-05-05 01:49 | 35.19401 | 126.15933 | 32799 ft | 356 kts | 223° |
| 2026-05-05 01:49 | 35.17398 | 126.14212 | 33133 ft | 348 kts | 224° |
| 2026-05-05 01:49 | 35.15475 | 126.12474 | 33393 ft | 341 kts | 226° |
| 2026-05-05 01:49 | 35.13611 | 126.10694 | 33364 ft | 342 kts | 227° |
| 2026-05-05 01:50 | 35.11761 | 126.08816 | 33107 ft | 349 kts | 229° |
| 2026-05-05 01:50 | 35.09952 | 126.06866 | 32988 ft | 352 kts | 230° |
| 2026-05-05 01:50 | 35.08170 | 126.04843 | 33168 ft | 347 kts | 231° |
| 2026-05-05 01:50 | 35.06458 | 126.02802 | 33415 ft | 341 kts | 233° |
| 2026-05-05 01:51 | 35.03200 | 125.98585 | 33269 ft | 345 kts | 236° |
| 2026-05-05 01:51 | 35.00101 | 125.94092 | 33331 ft | 343 kts | 239° |
| 2026-05-05 01:52 | 34.98646 | 125.91807 | 33518 ft | 339 kts | 240° |
| 2026-05-05 01:52 | 34.97251 | 125.89491 | 33531 ft | 339 kts | 242° |
| 2026-05-05 01:52 | 34.95911 | 125.87154 | 33320 ft | 346 kts | 239° |
| 2026-05-05 01:52 | 34.94045 | 125.85127 | 32304 ft | 380 kts | 213° |
| 2026-05-05 01:53 | 34.91454 | 125.84156 | 31756 ft | 400 kts | 193° |
| 2026-05-05 01:53 | 34.88612 | 125.84196 | 30863 ft | 416 kts | 182° |
| 2026-05-05 01:53 | 34.85699 | 125.84539 | 30579 ft | 427 kts | 183° |
| 2026-05-05 01:53 | 34.82686 | 125.84802 | 30205 ft | 440 kts | 184° |
| 2026-05-05 01:54 | 34.79605 | 125.84990 | 30077 ft | 446 kts | 186° |
| 2026-05-05 01:54 | 34.76526 | 125.84817 | 30207 ft | 442 kts | 194° |
| 2026-05-05 01:54 | 34.70447 | 125.83642 | 30186 ft | 447 kts | 194° |
| 2026-05-05 01:55 | 34.64301 | 125.82314 | 30195 ft | 449 kts | 194° |
| 2026-05-05 01:55 | 34.58147 | 125.81058 | 30193 ft | 449 kts | 193° |
| 2026-05-05 01:56 | 34.51980 | 125.79861 | 30193 ft | 449 kts | 193° |
| 2026-05-05 01:56 | 34.45806 | 125.78666 | 30185 ft | 449 kts | 193° |
| 2026-05-05 01:57 | 34.39681 | 125.77463 | 30196 ft | 449 kts | 193° |
| 2026-05-05 01:57 | 34.33522 | 125.76257 | 30203 ft | 448 kts | 193° |
| 2026-05-05 01:58 | 34.27363 | 125.75051 | 30206 ft | 448 kts | 193° |
| 2026-05-05 01:58 | 34.21201 | 125.73841 | 30206 ft | 448 kts | 193° |
| 2026-05-05 01:59 | 34.15043 | 125.72634 | 30203 ft | 448 kts | 193° |
| 2026-05-05 01:59 | 34.08928 | 125.71444 | 30204 ft | 448 kts | 193° |
| 2026-05-05 02:00 | 34.02770 | 125.70246 | 30189 ft | 448 kts | 193° |
| 2026-05-05 02:00 | 33.96612 | 125.69048 | 30198 ft | 448 kts | 193° |
| 2026-05-05 02:01 | 33.90458 | 125.67852 | 30201 ft | 448 kts | 193° |
| 2026-05-05 02:01 | 33.84346 | 125.66666 | 30188 ft | 448 kts | 193° |
| 2026-05-05 02:02 | 33.78194 | 125.65473 | 30195 ft | 448 kts | 193° |
| 2026-05-05 02:02 | 33.72041 | 125.64284 | 30204 ft | 448 kts | 193° |
| 2026-05-05 02:03 | 33.65886 | 125.63093 | 30186 ft | 448 kts | 193° |
| 2026-05-05 02:03 | 33.59729 | 125.61902 | 30197 ft | 448 kts | 193° |
| 2026-05-05 02:04 | 33.53617 | 125.60725 | 30203 ft | 448 kts | 193° |
| 2026-05-05 02:04 | 33.47472 | 125.59552 | 30181 ft | 447 kts | 194° |
| 2026-05-05 02:05 | 33.41336 | 125.58373 | 30206 ft | 446 kts | 193° |
| 2026-05-05 02:05 | 33.35222 | 125.57201 | 30206 ft | 444 kts | 193° |
| 2026-05-05 02:06 | 33.29161 | 125.56037 | 30207 ft | 444 kts | 193° |
| 2026-05-05 02:06 | 33.23061 | 125.54877 | 30206 ft | 444 kts | 193° |
| 2026-05-05 02:07 | 33.16963 | 125.53714 | 30211 ft | 443 kts | 194° |
| 2026-05-05 02:07 | 33.10878 | 125.52543 | 30206 ft | 443 kts | 193° |
| 2026-05-05 02:08 | 33.04792 | 125.51387 | 30198 ft | 442 kts | 194° |
| 2026-05-05 02:08 | 32.98772 | 125.50250 | 30214 ft | 440 kts | 194° |
| 2026-05-05 02:09 | 32.92706 | 125.49104 | 30190 ft | 441 kts | 194° |
| 2026-05-05 02:09 | 32.86650 | 125.47948 | 30190 ft | 441 kts | 194° |
| 2026-05-05 02:10 | 32.80629 | 125.46805 | 30188 ft | 437 kts | 194° |
| 2026-05-05 02:10 | 32.74630 | 125.45672 | 30189 ft | 436 kts | 194° |
| 2026-05-05 02:11 | 32.68676 | 125.44544 | 30191 ft | 436 kts | 194° |
| 2026-05-05 02:11 | 32.62690 | 125.43417 | 30182 ft | 435 kts | 194° |
| 2026-05-05 02:12 | 32.53735 | 125.41733 | 30203 ft | 434 kts | 194° |
| 2026-05-05 02:13 | 32.47778 | 125.40614 | 30204 ft | 433 kts | 194° |
| 2026-05-05 02:13 | 32.41867 | 125.39502 | 30184 ft | 433 kts | 194° |
| 2026-05-05 02:14 | 32.35917 | 125.38379 | 30190 ft | 433 kts | 194° |
| 2026-05-05 02:14 | 32.29960 | 125.37267 | 30189 ft | 433 kts | 194° |
| 2026-05-05 02:15 | 32.24004 | 125.36156 | 30193 ft | 433 kts | 194° |
| 2026-05-05 02:15 | 32.18062 | 125.35042 | 30191 ft | 432 kts | 196° |
| 2026-05-05 02:16 | 32.12172 | 125.33948 | 30203 ft | 431 kts | 196° |
| 2026-05-05 02:16 | 32.06251 | 125.32848 | 30205 ft | 430 kts | 196° |
| 2026-05-05 02:17 | 32.00347 | 125.31750 | 30190 ft | 429 kts | 197° |
| 2026-05-05 02:17 | 31.94460 | 125.30656 | 30207 ft | 427 kts | 197° |
| 2026-05-05 02:18 | 31.88627 | 125.29576 | 30207 ft | 426 kts | 197° |
| 2026-05-05 02:18 | 31.82770 | 125.28491 | 30206 ft | 426 kts | 197° |
| 2026-05-05 02:19 | 31.76933 | 125.27402 | 30197 ft | 424 kts | 198° |
| 2026-05-05 02:19 | 31.71121 | 125.26329 | 30208 ft | 422 kts | 198° |
| 2026-05-05 02:20 | 31.65364 | 125.25271 | 30209 ft | 421 kts | 198° |
| 2026-05-05 02:20 | 31.59562 | 125.24203 | 30155 ft | 423 kts | 197° |
| 2026-05-05 02:21 | 31.53769 | 125.23142 | 30193 ft | 420 kts | 198° |
| 2026-05-05 02:21 | 31.47999 | 125.22078 | 30192 ft | 420 kts | 198° |
| 2026-05-05 02:22 | 31.42262 | 125.21023 | 30195 ft | 420 kts | 198° |
| 2026-05-05 02:22 | 31.36491 | 125.19962 | 30163 ft | 419 kts | 198° |
| 2026-05-05 02:23 | 31.30735 | 125.18911 | 30185 ft | 418 kts | 198° |
| 2026-05-05 02:23 | 31.24992 | 125.17863 | 30198 ft | 417 kts | 198° |
| 2026-05-05 02:24 | 31.19258 | 125.16813 | 30204 ft | 417 kts | 198° |
| 2026-05-05 02:24 | 31.13567 | 125.15770 | 30205 ft | 416 kts | 198° |
| 2026-05-05 02:25 | 31.07842 | 125.14720 | 30204 ft | 416 kts | 198° |
| 2026-05-05 02:25 | 31.02117 | 125.13677 | 30190 ft | 416 kts | 198° |
| 2026-05-05 02:26 | 30.96394 | 125.12645 | 30197 ft | 416 kts | 198° |
| 2026-05-05 02:26 | 30.90714 | 125.11613 | 30179 ft | 416 kts | 198° |
| 2026-05-05 02:27 | 30.85000 | 125.10574 | 30190 ft | 415 kts | 198° |
| 2026-05-05 02:27 | 30.79288 | 125.09545 | 30195 ft | 415 kts | 198° |
| 2026-05-05 02:28 | 30.73578 | 125.08514 | 30153 ft | 415 kts | 198° |
| 2026-05-05 02:28 | 30.67918 | 125.07483 | 30178 ft | 414 kts | 198° |
| 2026-05-05 02:29 | 30.62220 | 125.06452 | 30194 ft | 414 kts | 198° |
| 2026-05-05 02:29 | 30.56520 | 125.05426 | 30197 ft | 414 kts | 198° |
| 2026-05-05 02:30 | 30.50824 | 125.04404 | 30164 ft | 414 kts | 198° |
| 2026-05-05 02:30 | 30.45136 | 125.03379 | 30184 ft | 413 kts | 198° |
| 2026-05-05 02:31 | 30.39491 | 125.02364 | 30192 ft | 413 kts | 198° |
| 2026-05-05 02:31 | 30.33808 | 125.01345 | 30196 ft | 413 kts | 198° |
| 2026-05-05 02:32 | 30.28130 | 125.00328 | 30166 ft | 413 kts | 198° |
| 2026-05-05 02:32 | 30.22462 | 124.99311 | 30184 ft | 412 kts | 198° |
| 2026-05-05 02:33 | 30.16794 | 124.98303 | 30207 ft | 412 kts | 198° |
| 2026-05-05 02:33 | 30.11160 | 124.97300 | 30207 ft | 412 kts | 198° |
| 2026-05-05 02:34 | 30.05503 | 124.96286 | 30171 ft | 412 kts | 198° |
| 2026-05-05 02:34 | 30.00809 | 124.95408 | 30179 ft | 408 kts | 201° |
| 2026-05-05 02:35 | 29.94654 | 124.92960 | 30184 ft | 399 kts | 208° |
| 2026-05-05 02:35 | 29.89476 | 124.90751 | 30189 ft | 400 kts | 207° |
| 2026-05-05 02:36 | 29.84254 | 124.88536 | 30147 ft | 400 kts | 207° |
| 2026-05-05 02:36 | 29.79025 | 124.86312 | 30158 ft | 401 kts | 208° |
| 2026-05-05 02:37 | 29.73786 | 124.84080 | 30166 ft | 402 kts | 208° |
| 2026-05-05 02:37 | 29.69422 | 124.82221 | 30174 ft | 402 kts | 207° |
| 2026-05-05 02:38 | 29.63316 | 124.79627 | 30171 ft | 402 kts | 207° |
| 2026-05-05 02:38 | 29.58956 | 124.77781 | 30191 ft | 402 kts | 207° |
| 2026-05-05 02:39 | 29.52829 | 124.75192 | 30200 ft | 401 kts | 207° |
| 2026-05-05 02:39 | 29.48478 | 124.73347 | 30217 ft | 401 kts | 208° |
| 2026-05-05 02:40 | 29.42370 | 124.70759 | 30175 ft | 401 kts | 207° |
| 2026-05-05 02:40 | 29.37156 | 124.68561 | 30183 ft | 399 kts | 207° |
| 2026-05-05 02:41 | 29.32831 | 124.66740 | 30182 ft | 398 kts | 207° |
| 2026-05-05 02:41 | 29.27629 | 124.64545 | 30179 ft | 398 kts | 207° |
| 2026-05-05 02:42 | 29.22431 | 124.62350 | 30154 ft | 398 kts | 207° |
| 2026-05-05 02:42 | 29.17233 | 124.60163 | 30171 ft | 398 kts | 207° |
| 2026-05-05 02:43 | 29.12040 | 124.57981 | 30180 ft | 398 kts | 207° |
| 2026-05-05 02:43 | 29.06873 | 124.55821 | 30186 ft | 398 kts | 207° |
| 2026-05-05 02:44 | 29.01680 | 124.53641 | 30255 ft | 398 kts | 207° |
| 2026-05-05 02:44 | 28.99083 | 124.52548 | 30475 ft | 397 kts | 207° |
| 2026-05-05 02:44 | 28.96512 | 124.51416 | 30684 ft | 393 kts | 211° |
| 2026-05-05 02:44 | 28.94112 | 124.49969 | 30879 ft | 387 kts | 217° |
| 2026-05-05 02:45 | 28.91194 | 124.47664 | 31129 ft | 385 kts | 220° |
| 2026-05-05 02:45 | 28.89713 | 124.46471 | 31242 ft | 386 kts | 220° |
| 2026-05-05 02:45 | 28.87511 | 124.44705 | 31372 ft | 387 kts | 220° |
| 2026-05-05 02:45 | 28.85336 | 124.42965 | 31534 ft | 387 kts | 220° |
| 2026-05-05 02:46 | 28.83130 | 124.41199 | 31725 ft | 387 kts | 220° |
| 2026-05-05 02:46 | 28.80929 | 124.39439 | 31880 ft | 386 kts | 220° |
| 2026-05-05 02:46 | 28.78730 | 124.37677 | 32097 ft | 385 kts | 220° |
| 2026-05-05 02:47 | 28.74354 | 124.34164 | 32171 ft | 384 kts | 220° |
| 2026-05-05 02:47 | 28.69979 | 124.30664 | 32174 ft | 384 kts | 220° |
| 2026-05-05 02:48 | 28.65639 | 124.27194 | 32174 ft | 384 kts | 220° |
| 2026-05-05 02:48 | 28.61270 | 124.23696 | 32131 ft | 384 kts | 220° |
| 2026-05-05 02:49 | 28.56889 | 124.20188 | 32183 ft | 386 kts | 219° |
| 2026-05-05 02:49 | 28.52485 | 124.16682 | 32182 ft | 386 kts | 219° |
| 2026-05-05 02:50 | 28.48081 | 124.13188 | 32180 ft | 386 kts | 219° |
| 2026-05-05 02:50 | 28.43708 | 124.09708 | 32185 ft | 386 kts | 219° |
| 2026-05-05 02:51 | 28.39314 | 124.06200 | 32163 ft | 387 kts | 219° |
| 2026-05-05 02:51 | 28.34900 | 124.02698 | 32166 ft | 387 kts | 219° |
| 2026-05-05 02:52 | 28.30327 | 123.99429 | 32165 ft | 394 kts | 210° |
| 2026-05-05 02:52 | 28.25272 | 123.96996 | 32170 ft | 395 kts | 209° |
| 2026-05-05 02:53 | 28.20237 | 123.94591 | 32149 ft | 396 kts | 209° |
| 2026-05-05 02:53 | 28.15158 | 123.92165 | 32148 ft | 397 kts | 209° |
| 2026-05-05 02:54 | 28.10066 | 123.89735 | 32154 ft | 397 kts | 209° |
| 2026-05-05 02:54 | 28.04971 | 123.87299 | 32158 ft | 398 kts | 209° |
| 2026-05-05 02:55 | 27.99903 | 123.84883 | 32164 ft | 398 kts | 209° |
| 2026-05-05 02:55 | 27.94790 | 123.82447 | 32133 ft | 399 kts | 209° |
| 2026-05-05 02:56 | 27.89666 | 123.79996 | 32134 ft | 400 kts | 209° |
| 2026-05-05 02:56 | 27.84531 | 123.77551 | 32140 ft | 401 kts | 209° |
| 2026-05-05 02:57 | 27.79384 | 123.75107 | 32147 ft | 401 kts | 209° |
| 2026-05-05 02:57 | 27.74264 | 123.72686 | 32115 ft | 402 kts | 209° |
| 2026-05-05 02:58 | 27.69090 | 123.70231 | 32118 ft | 404 kts | 209° |
| 2026-05-05 02:58 | 27.63896 | 123.67763 | 32158 ft | 405 kts | 209° |
| 2026-05-05 02:59 | 27.59116 | 123.64612 | 32164 ft | 396 kts | 220° |
| 2026-05-05 02:59 | 27.54682 | 123.61006 | 32116 ft | 396 kts | 220° |
| 2026-05-05 03:00 | 27.50195 | 123.57378 | 32118 ft | 398 kts | 220° |
| 2026-05-05 03:00 | 27.45687 | 123.53737 | 32122 ft | 399 kts | 220° |
| 2026-05-05 03:01 | 27.41175 | 123.50084 | 32130 ft | 400 kts | 220° |
| 2026-05-05 03:01 | 27.36650 | 123.46430 | 32133 ft | 401 kts | 220° |
| 2026-05-05 03:02 | 27.32151 | 123.42794 | 32113 ft | 401 kts | 220° |
| 2026-05-05 03:02 | 27.27617 | 123.39123 | 32120 ft | 402 kts | 220° |
| 2026-05-05 03:03 | 27.23079 | 123.35463 | 32138 ft | 402 kts | 220° |
| 2026-05-05 03:03 | 27.18517 | 123.31797 | 32137 ft | 403 kts | 220° |
| 2026-05-05 03:04 | 27.13956 | 123.28141 | 32103 ft | 403 kts | 220° |
| 2026-05-05 03:04 | 27.09399 | 123.24483 | 32112 ft | 403 kts | 221° |
| 2026-05-05 03:05 | 27.04865 | 123.20836 | 32121 ft | 404 kts | 220° |
| 2026-05-05 03:05 | 27.00291 | 123.17174 | 32131 ft | 404 kts | 220° |
| 2026-05-05 03:06 | 26.95711 | 123.13519 | 32156 ft | 404 kts | 220° |
| 2026-05-05 03:06 | 26.91139 | 123.09858 | 32153 ft | 404 kts | 220° |
| 2026-05-05 03:07 | 26.86603 | 123.06227 | 32150 ft | 403 kts | 220° |
| 2026-05-05 03:07 | 26.82037 | 123.02574 | 32149 ft | 403 kts | 220° |
| 2026-05-05 03:08 | 26.77465 | 122.98930 | 32145 ft | 403 kts | 220° |
| 2026-05-05 03:08 | 26.72888 | 122.95286 | 32134 ft | 403 kts | 220° |
| 2026-05-05 03:09 | 26.68333 | 122.91679 | 32119 ft | 404 kts | 220° |
| 2026-05-05 03:09 | 26.63736 | 122.88045 | 32141 ft | 405 kts | 220° |
| 2026-05-05 03:10 | 26.59148 | 122.84409 | 32142 ft | 405 kts | 220° |
| 2026-05-05 03:10 | 26.54554 | 122.80772 | 32139 ft | 405 kts | 220° |
| 2026-05-05 03:11 | 26.49963 | 122.77131 | 32111 ft | 406 kts | 221° |
| 2026-05-05 03:11 | 26.45398 | 122.73510 | 32121 ft | 405 kts | 221° |
| 2026-05-05 03:12 | 26.40802 | 122.69865 | 32124 ft | 405 kts | 221° |
| 2026-05-05 03:12 | 26.36189 | 122.66229 | 32123 ft | 406 kts | 220° |
| 2026-05-05 03:13 | 26.31576 | 122.62591 | 32129 ft | 406 kts | 220° |
| 2026-05-05 03:13 | 26.26965 | 122.58956 | 32125 ft | 406 kts | 221° |
| 2026-05-05 03:14 | 26.22388 | 122.55348 | 32133 ft | 405 kts | 221° |
| 2026-05-05 03:14 | 26.17783 | 122.51726 | 32132 ft | 405 kts | 221° |
| 2026-05-05 03:15 | 26.13184 | 122.48104 | 32136 ft | 405 kts | 221° |
| 2026-05-05 03:15 | 26.08574 | 122.44493 | 32137 ft | 405 kts | 221° |
| 2026-05-05 03:16 | 26.03993 | 122.40907 | 32138 ft | 405 kts | 221° |
| 2026-05-05 03:16 | 25.99397 | 122.37309 | 32130 ft | 404 kts | 221° |
| 2026-05-05 03:17 | 25.94812 | 122.33720 | 32135 ft | 403 kts | 220° |
| 2026-05-05 03:17 | 25.90229 | 122.30137 | 32113 ft | 403 kts | 220° |
| 2026-05-05 03:18 | 25.85667 | 122.26570 | 32078 ft | 404 kts | 221° |
| 2026-05-05 03:18 | 25.81069 | 122.22985 | 32105 ft | 404 kts | 221° |
| 2026-05-05 03:19 | 25.74162 | 122.17613 | 32101 ft | 404 kts | 220° |
| 2026-05-05 03:19 | 25.69560 | 122.14038 | 32103 ft | 404 kts | 221° |
| 2026-05-05 03:20 | 25.64994 | 122.10486 | 32103 ft | 404 kts | 219° |
| 2026-05-05 03:20 | 25.59760 | 122.07983 | 32071 ft | 422 kts | 199° |
| 2026-05-05 03:21 | 25.56807 | 122.07604 | 32065 ft | 433 kts | 190° |
| 2026-05-05 03:21 | 25.53798 | 122.07495 | 32071 ft | 434 kts | 191° |
| 2026-05-05 03:21 | 25.47754 | 122.07249 | 32087 ft | 436 kts | 192° |
| 2026-05-05 03:22 | 25.41736 | 122.07003 | 32081 ft | 435 kts | 191° |
| 2026-05-05 03:22 | 25.35684 | 122.06776 | 32077 ft | 435 kts | 190° |
| 2026-05-05 03:23 | 25.29644 | 122.06545 | 32074 ft | 434 kts | 191° |
| 2026-05-05 03:23 | 25.23598 | 122.06302 | 32066 ft | 435 kts | 191° |
| 2026-05-05 03:24 | 25.17587 | 122.06066 | 32069 ft | 435 kts | 191° |
| 2026-05-05 03:24 | 25.11533 | 122.05823 | 32034 ft | 436 kts | 191° |
| 2026-05-05 03:25 | 25.05451 | 122.05579 | 32036 ft | 439 kts | 191° |
| 2026-05-05 03:25 | 24.99332 | 122.05347 | 32041 ft | 441 kts | 190° |
| 2026-05-05 03:26 | 24.93177 | 122.05116 | 32047 ft | 443 kts | 191° |
| 2026-05-05 03:26 | 24.87022 | 122.04871 | 32057 ft | 443 kts | 191° |
| 2026-05-05 03:27 | 24.80905 | 122.04629 | 32044 ft | 443 kts | 191° |
| 2026-05-05 03:27 | 24.74749 | 122.04389 | 32054 ft | 442 kts | 190° |
| 2026-05-05 03:28 | 24.68593 | 122.04155 | 32059 ft | 443 kts | 191° |
| 2026-05-05 03:28 | 24.62431 | 122.03912 | 32064 ft | 443 kts | 191° |
| 2026-05-05 03:29 | 24.56270 | 122.03675 | 32069 ft | 443 kts | 190° |
| 2026-05-05 03:29 | 24.50152 | 122.03438 | 32069 ft | 443 kts | 191° |
| 2026-05-05 03:30 | 24.43984 | 122.03204 | 32074 ft | 443 kts | 190° |
| 2026-05-05 03:30 | 24.37820 | 122.02969 | 32074 ft | 443 kts | 191° |
| 2026-05-05 03:31 | 24.31906 | 122.01782 | 32040 ft | 427 kts | 204° |
| 2026-05-05 03:31 | 24.26210 | 121.99898 | 32047 ft | 429 kts | 204° |
| 2026-05-05 03:32 | 24.20524 | 121.98049 | 32051 ft | 429 kts | 204° |
| 2026-05-05 03:32 | 24.14792 | 121.96183 | 32060 ft | 430 kts | 204° |
| 2026-05-05 03:33 | 24.09056 | 121.94318 | 32066 ft | 430 kts | 204° |
| 2026-05-05 03:33 | 24.03309 | 121.92444 | 32035 ft | 432 kts | 204° |
| 2026-05-05 03:34 | 23.97538 | 121.90561 | 32033 ft | 434 kts | 204° |
| 2026-05-05 03:34 | 23.91776 | 121.88692 | 32033 ft | 435 kts | 204° |
| 2026-05-05 03:35 | 23.85967 | 121.86806 | 32039 ft | 436 kts | 204° |
| 2026-05-05 03:35 | 23.80147 | 121.84917 | 32029 ft | 437 kts | 204° |
| 2026-05-05 03:36 | 23.74308 | 121.83023 | 32033 ft | 438 kts | 204° |
| 2026-05-05 03:36 | 23.68454 | 121.81125 | 32034 ft | 439 kts | 204° |
| 2026-05-05 03:37 | 23.62629 | 121.79239 | 32049 ft | 440 kts | 204° |
| 2026-05-05 03:37 | 23.56766 | 121.77347 | 32025 ft | 439 kts | 204° |
| 2026-05-05 03:38 | 23.50900 | 121.75447 | 32026 ft | 440 kts | 204° |
| 2026-05-05 03:38 | 23.45025 | 121.73538 | 32037 ft | 441 kts | 204° |
| 2026-05-05 03:39 | 23.39146 | 121.71636 | 32044 ft | 441 kts | 204° |
| 2026-05-05 03:39 | 23.33293 | 121.69759 | 32049 ft | 442 kts | 204° |
| 2026-05-05 03:40 | 23.27401 | 121.67867 | 32031 ft | 442 kts | 204° |
| 2026-05-05 03:40 | 23.21506 | 121.65961 | 32038 ft | 442 kts | 204° |
| 2026-05-05 03:41 | 23.15609 | 121.64062 | 32054 ft | 442 kts | 203° |
| 2026-05-05 03:41 | 23.09704 | 121.62177 | 32050 ft | 442 kts | 203° |
| 2026-05-05 03:42 | 23.03840 | 121.60296 | 32022 ft | 442 kts | 203° |
| 2026-05-05 03:42 | 22.98182 | 121.57889 | 32029 ft | 431 kts | 216° |
| 2026-05-05 03:43 | 22.93270 | 121.54248 | 32026 ft | 428 kts | 220° |
| 2026-05-05 03:43 | 22.88394 | 121.50551 | 32047 ft | 427 kts | 220° |
| 2026-05-05 03:44 | 22.83514 | 121.46865 | 32039 ft | 427 kts | 220° |
| 2026-05-05 03:44 | 22.78637 | 121.43173 | 32011 ft | 428 kts | 220° |
| 2026-05-05 03:45 | 22.73789 | 121.39506 | 32025 ft | 428 kts | 220° |
| 2026-05-05 03:45 | 22.68961 | 121.35730 | 32028 ft | 427 kts | 223° |
| 2026-05-05 03:46 | 22.64387 | 121.31655 | 32036 ft | 426 kts | 225° |
| 2026-05-05 03:46 | 22.59874 | 121.27505 | 32038 ft | 426 kts | 225° |
| 2026-05-05 03:47 | 22.55344 | 121.23430 | 32021 ft | 427 kts | 224° |
| 2026-05-05 03:47 | 22.50735 | 121.19370 | 32030 ft | 428 kts | 223° |
| 2026-05-05 03:48 | 22.46118 | 121.15319 | 32034 ft | 427 kts | 223° |
| 2026-05-05 03:48 | 22.41514 | 121.11261 | 32029 ft | 427 kts | 224° |
| 2026-05-05 03:49 | 22.36914 | 121.07191 | 32039 ft | 427 kts | 224° |
| 2026-05-05 03:49 | 22.32310 | 121.03124 | 32006 ft | 428 kts | 223° |
| 2026-05-05 03:50 | 22.27723 | 120.99090 | 32011 ft | 429 kts | 223° |
| 2026-05-05 03:50 | 22.23097 | 120.95020 | 32022 ft | 429 kts | 223° |
| 2026-05-05 03:51 | 22.18472 | 120.90946 | 32026 ft | 429 kts | 223° |
| 2026-05-05 03:51 | 22.13844 | 120.86879 | 32025 ft | 429 kts | 223° |
| 2026-05-05 03:52 | 22.09213 | 120.82825 | 32018 ft | 429 kts | 223° |
| 2026-05-05 03:52 | 22.04612 | 120.78787 | 32020 ft | 429 kts | 223° |
| 2026-05-05 03:53 | 21.99981 | 120.74722 | 32023 ft | 429 kts | 223° |
| 2026-05-05 03:53 | 21.95347 | 120.70665 | 32022 ft | 429 kts | 223° |
| 2026-05-05 03:54 | 21.90714 | 120.66617 | 32021 ft | 429 kts | 223° |
| 2026-05-05 03:54 | 21.86085 | 120.62568 | 31992 ft | 429 kts | 223° |
| 2026-05-05 03:55 | 21.81469 | 120.58541 | 31994 ft | 430 kts | 223° |
| 2026-05-05 03:55 | 21.76815 | 120.54487 | 31993 ft | 431 kts | 223° |
| 2026-05-05 03:56 | 21.72155 | 120.50430 | 31998 ft | 431 kts | 223° |
| 2026-05-05 03:56 | 21.67490 | 120.46369 | 32001 ft | 432 kts | 223° |
| 2026-05-05 03:57 | 21.62822 | 120.42304 | 31986 ft | 432 kts | 223° |
| 2026-05-05 03:57 | 21.58150 | 120.38241 | 31996 ft | 432 kts | 223° |
| 2026-05-05 03:58 | 21.53500 | 120.34205 | 32000 ft | 433 kts | 223° |
| 2026-05-05 03:58 | 21.48821 | 120.30146 | 32002 ft | 433 kts | 223° |
| 2026-05-05 03:59 | 21.44137 | 120.26088 | 32006 ft | 433 kts | 223° |
| 2026-05-05 03:59 | 21.39448 | 120.22033 | 32003 ft | 433 kts | 223° |
| 2026-05-05 04:00 | 21.34763 | 120.17973 | 31984 ft | 433 kts | 223° |
| 2026-05-05 04:00 | 21.30071 | 120.13911 | 32001 ft | 434 kts | 223° |
| 2026-05-05 04:01 | 21.25406 | 120.09880 | 32000 ft | 434 kts | 223° |
| 2026-05-05 04:01 | 21.20698 | 120.05828 | 32006 ft | 434 kts | 223° |
| 2026-05-05 04:02 | 21.15993 | 120.01776 | 32002 ft | 434 kts | 223° |
| 2026-05-05 04:02 | 21.11290 | 119.97722 | 31985 ft | 434 kts | 223° |
| 2026-05-05 04:03 | 21.06575 | 119.93665 | 31977 ft | 435 kts | 223° |
| 2026-05-05 04:03 | 21.01889 | 119.89625 | 31984 ft | 436 kts | 223° |
| 2026-05-05 04:04 | 20.97456 | 119.85253 | 31986 ft | 433 kts | 229° |
| 2026-05-05 04:04 | 20.93224 | 119.80680 | 31989 ft | 433 kts | 229° |
| 2026-05-05 04:05 | 20.88986 | 119.76103 | 31970 ft | 433 kts | 228° |
| 2026-05-05 04:05 | 20.84735 | 119.71528 | 31971 ft | 434 kts | 228° |
| 2026-05-05 04:06 | 20.80510 | 119.66983 | 31971 ft | 434 kts | 228° |
| 2026-05-05 04:06 | 20.76251 | 119.62400 | 31975 ft | 435 kts | 228° |
| 2026-05-05 04:07 | 20.71988 | 119.57821 | 31980 ft | 435 kts | 228° |
| 2026-05-05 04:07 | 20.67727 | 119.53239 | 31987 ft | 435 kts | 228° |
| 2026-05-05 04:08 | 20.63460 | 119.48652 | 31965 ft | 435 kts | 228° |
| 2026-05-05 04:08 | 20.59211 | 119.44102 | 31967 ft | 436 kts | 228° |
| 2026-05-05 04:09 | 20.54930 | 119.39514 | 31970 ft | 437 kts | 228° |
| 2026-05-05 04:09 | 20.50641 | 119.34921 | 31974 ft | 437 kts | 228° |
| 2026-05-05 04:10 | 20.46350 | 119.30329 | 31973 ft | 437 kts | 228° |
| 2026-05-05 04:10 | 20.42054 | 119.25745 | 31977 ft | 437 kts | 228° |
| 2026-05-05 04:11 | 20.37751 | 119.21153 | 31961 ft | 438 kts | 228° |
| 2026-05-05 04:11 | 20.33475 | 119.16586 | 31964 ft | 439 kts | 228° |
| 2026-05-05 04:12 | 20.29163 | 119.11979 | 31966 ft | 439 kts | 228° |
| 2026-05-05 04:12 | 20.24843 | 119.07376 | 31970 ft | 439 kts | 228° |
| 2026-05-05 04:13 | 20.20519 | 119.02779 | 31968 ft | 440 kts | 227° |
| 2026-05-05 04:13 | 20.16191 | 118.98181 | 31958 ft | 440 kts | 227° |
| 2026-05-05 04:14 | 20.11890 | 118.93597 | 31959 ft | 440 kts | 227° |
| 2026-05-05 04:14 | 20.07550 | 118.88994 | 31962 ft | 441 kts | 227° |
| 2026-05-05 04:15 | 20.03203 | 118.84391 | 31964 ft | 441 kts | 227° |
| 2026-05-05 04:15 | 19.98861 | 118.79785 | 31965 ft | 441 kts | 227° |
| 2026-05-05 04:16 | 19.94510 | 118.75181 | 31970 ft | 441 kts | 227° |
| 2026-05-05 04:16 | 19.90189 | 118.70609 | 31952 ft | 441 kts | 228° |
| 2026-05-05 04:17 | 19.85836 | 118.66003 | 31961 ft | 442 kts | 227° |
| 2026-05-05 04:17 | 19.81478 | 118.61396 | 31957 ft | 442 kts | 227° |
| 2026-05-05 04:18 | 19.77113 | 118.56792 | 31958 ft | 442 kts | 227° |
| 2026-05-05 04:18 | 19.72744 | 118.52187 | 31963 ft | 442 kts | 227° |
| 2026-05-05 04:19 | 19.68385 | 118.47586 | 31962 ft | 442 kts | 227° |
| 2026-05-05 04:19 | 19.64045 | 118.43012 | 31963 ft | 443 kts | 227° |
| 2026-05-05 04:20 | 19.59671 | 118.38420 | 31958 ft | 443 kts | 227° |
| 2026-05-05 04:20 | 19.55298 | 118.33822 | 31957 ft | 443 kts | 227° |
| 2026-05-05 04:21 | 19.50926 | 118.29226 | 31961 ft | 443 kts | 227° |
| 2026-05-05 04:21 | 19.46551 | 118.24634 | 31962 ft | 443 kts | 227° |
| 2026-05-05 04:22 | 19.42174 | 118.20041 | 31956 ft | 443 kts | 227° |
| 2026-05-05 04:22 | 19.37816 | 118.15483 | 31944 ft | 443 kts | 227° |
| 2026-05-05 04:23 | 19.33433 | 118.10892 | 31949 ft | 443 kts | 227° |
| 2026-05-05 04:23 | 19.29048 | 118.06301 | 31952 ft | 444 kts | 227° |
| 2026-05-05 04:24 | 19.25400 | 118.02488 | 31952 ft | 444 kts | 227° |
| 2026-05-05 04:25 | 19.18101 | 117.94861 | 31955 ft | 444 kts | 227° |
| 2026-05-05 04:25 | 19.13702 | 117.90278 | 31943 ft | 444 kts | 227° |
| 2026-05-05 04:26 | 19.09300 | 117.85693 | 31940 ft | 445 kts | 227° |
| 2026-05-05 04:26 | 19.04893 | 117.81104 | 31943 ft | 445 kts | 227° |
| 2026-05-05 04:27 | 19.01228 | 117.77288 | 31946 ft | 445 kts | 227° |
| 2026-05-05 04:27 | 18.96097 | 117.71951 | 31946 ft | 445 kts | 227° |
| 2026-05-05 04:28 | 18.91688 | 117.67356 | 31947 ft | 445 kts | 227° |
| 2026-05-05 04:28 | 18.87277 | 117.62766 | 31929 ft | 446 kts | 227° |
| 2026-05-05 04:29 | 18.83598 | 117.58953 | 31932 ft | 446 kts | 227° |
| 2026-05-05 04:29 | 18.79158 | 117.54361 | 31933 ft | 447 kts | 227° |
| 2026-05-05 04:30 | 18.74717 | 117.49769 | 31939 ft | 447 kts | 227° |
| 2026-05-05 04:30 | 18.70315 | 117.45198 | 31939 ft | 447 kts | 227° |
| 2026-05-05 04:31 | 18.65871 | 117.40603 | 31943 ft | 447 kts | 227° |
| 2026-05-05 04:31 | 18.61425 | 117.36013 | 31932 ft | 448 kts | 227° |
| 2026-05-05 04:32 | 18.56974 | 117.31413 | 31928 ft | 448 kts | 227° |
| 2026-05-05 04:32 | 18.52519 | 117.26819 | 31932 ft | 448 kts | 227° |
| 2026-05-05 04:33 | 18.48086 | 117.22256 | 31937 ft | 449 kts | 227° |
| 2026-05-05 04:33 | 18.43627 | 117.17657 | 31939 ft | 449 kts | 227° |
| 2026-05-05 04:34 | 18.39166 | 117.13059 | 31942 ft | 449 kts | 227° |
| 2026-05-05 04:34 | 18.34704 | 117.08467 | 31927 ft | 449 kts | 227° |
| 2026-05-05 04:35 | 18.30234 | 117.03875 | 31927 ft | 449 kts | 227° |
| 2026-05-05 04:35 | 18.25757 | 116.99280 | 31926 ft | 450 kts | 227° |
| 2026-05-05 04:36 | 18.21316 | 116.94713 | 31932 ft | 450 kts | 227° |
| 2026-05-05 04:36 | 18.16835 | 116.90117 | 31928 ft | 450 kts | 227° |
| 2026-05-05 04:37 | 18.12349 | 116.85527 | 31934 ft | 450 kts | 227° |
| 2026-05-05 04:37 | 18.07864 | 116.80938 | 31927 ft | 450 kts | 226° |
| 2026-05-05 04:38 | 18.03407 | 116.76369 | 31921 ft | 451 kts | 226° |
| 2026-05-05 04:38 | 17.98920 | 116.71771 | 31923 ft | 451 kts | 226° |
| 2026-05-05 04:39 | 17.94424 | 116.67177 | 31932 ft | 451 kts | 226° |
| 2026-05-05 04:39 | 17.89923 | 116.62583 | 31934 ft | 451 kts | 226° |
| 2026-05-05 04:40 | 17.85416 | 116.57991 | 31931 ft | 451 kts | 226° |
| 2026-05-05 04:40 | 17.80952 | 116.53439 | 31923 ft | 451 kts | 226° |
| 2026-05-05 04:41 | 17.76447 | 116.48846 | 31935 ft | 451 kts | 226° |
| 2026-05-05 04:41 | 17.71941 | 116.44262 | 31929 ft | 451 kts | 226° |
| 2026-05-05 04:42 | 17.67432 | 116.39676 | 31934 ft | 451 kts | 226° |
| 2026-05-05 04:42 | 17.62956 | 116.35123 | 31934 ft | 451 kts | 226° |
| 2026-05-05 04:43 | 17.58450 | 116.30538 | 31928 ft | 451 kts | 226° |
| 2026-05-05 04:43 | 17.53933 | 116.25956 | 31916 ft | 452 kts | 226° |
| 2026-05-05 04:44 | 17.49419 | 116.21372 | 31923 ft | 452 kts | 226° |
| 2026-05-05 04:44 | 17.44905 | 116.16793 | 31930 ft | 452 kts | 226° |
| 2026-05-05 04:45 | 17.40417 | 116.12250 | 31932 ft | 452 kts | 226° |
| 2026-05-05 04:45 | 17.35896 | 116.07684 | 31927 ft | 452 kts | 226° |
| 2026-05-05 04:46 | 17.31377 | 116.03118 | 31936 ft | 452 kts | 226° |
| 2026-05-05 04:46 | 17.26856 | 115.98543 | 31909 ft | 452 kts | 226° |
| 2026-05-05 04:47 | 17.22329 | 115.93965 | 31911 ft | 453 kts | 226° |
| 2026-05-05 04:47 | 17.17826 | 115.89421 | 31925 ft | 453 kts | 226° |
| 2026-05-05 04:48 | 17.13286 | 115.84847 | 31927 ft | 453 kts | 226° |
| 2026-05-05 04:48 | 17.08746 | 115.80272 | 31926 ft | 453 kts | 226° |
| 2026-05-05 04:49 | 17.04205 | 115.75705 | 31925 ft | 453 kts | 226° |
| 2026-05-05 04:49 | 16.99663 | 115.71139 | 31925 ft | 453 kts | 226° |
| 2026-05-05 04:50 | 16.95124 | 115.66574 | 31928 ft | 453 kts | 226° |
| 2026-05-05 04:50 | 16.90590 | 115.62001 | 31932 ft | 453 kts | 226° |
| 2026-05-05 04:51 | 16.86083 | 115.57471 | 31929 ft | 453 kts | 226° |
| 2026-05-05 04:51 | 16.81543 | 115.52919 | 31928 ft | 452 kts | 226° |
| 2026-05-05 04:52 | 16.77001 | 115.48373 | 31932 ft | 452 kts | 226° |
| 2026-05-05 04:52 | 16.72457 | 115.43827 | 31934 ft | 453 kts | 226° |
| 2026-05-05 04:53 | 16.67912 | 115.39278 | 31929 ft | 453 kts | 226° |
| 2026-05-05 04:53 | 16.63367 | 115.34721 | 31925 ft | 453 kts | 226° |
| 2026-05-05 04:54 | 16.58817 | 115.30173 | 31923 ft | 453 kts | 226° |
| 2026-05-05 04:54 | 16.54289 | 115.25662 | 31927 ft | 453 kts | 226° |
| 2026-05-05 04:55 | 16.49739 | 115.21118 | 31926 ft | 453 kts | 226° |
| 2026-05-05 04:55 | 16.45188 | 115.16572 | 31914 ft | 453 kts | 226° |
| 2026-05-05 04:56 | 16.40638 | 115.12027 | 31915 ft | 454 kts | 226° |
| 2026-05-05 04:56 | 16.36079 | 115.07479 | 31911 ft | 454 kts | 225° |
| 2026-05-05 04:57 | 16.31542 | 115.02969 | 31917 ft | 454 kts | 225° |
| 2026-05-05 04:57 | 16.26979 | 114.98425 | 31917 ft | 454 kts | 226° |
| 2026-05-05 04:58 | 16.22413 | 114.93885 | 31923 ft | 454 kts | 226° |
| 2026-05-05 04:58 | 16.17842 | 114.89342 | 31912 ft | 454 kts | 225° |
| 2026-05-05 04:59 | 16.13273 | 114.84803 | 31913 ft | 454 kts | 225° |
| 2026-05-05 04:59 | 16.08700 | 114.80264 | 31916 ft | 455 kts | 225° |
| 2026-05-05 05:00 | 16.04158 | 114.75755 | 31913 ft | 455 kts | 225° |
| 2026-05-05 05:00 | 15.99582 | 114.71220 | 31917 ft | 455 kts | 225° |
| 2026-05-05 05:01 | 15.94999 | 114.66686 | 31915 ft | 455 kts | 225° |
| 2026-05-05 05:01 | 15.90425 | 114.62152 | 31924 ft | 455 kts | 225° |
| 2026-05-05 05:02 | 15.85838 | 114.57620 | 31907 ft | 455 kts | 225° |
| 2026-05-05 05:02 | 15.81246 | 114.53089 | 31903 ft | 456 kts | 225° |
| 2026-05-05 05:03 | 15.76678 | 114.48582 | 31908 ft | 456 kts | 225° |
| 2026-05-05 05:03 | 15.72081 | 114.44037 | 31902 ft | 456 kts | 225° |
| 2026-05-05 05:04 | 15.67482 | 114.39498 | 31906 ft | 456 kts | 225° |
| 2026-05-05 05:04 | 15.62879 | 114.34962 | 31921 ft | 456 kts | 225° |
| 2026-05-05 05:05 | 15.58280 | 114.30422 | 31914 ft | 456 kts | 225° |
| 2026-05-05 05:05 | 15.53710 | 114.25916 | 31910 ft | 457 kts | 225° |
| 2026-05-05 05:06 | 15.49104 | 114.21383 | 31908 ft | 457 kts | 225° |
| 2026-05-05 05:06 | 15.44491 | 114.16853 | 31909 ft | 457 kts | 225° |
| 2026-05-05 05:07 | 15.39877 | 114.12313 | 31916 ft | 457 kts | 225° |
| 2026-05-05 05:07 | 15.35263 | 114.07781 | 31909 ft | 457 kts | 225° |
| 2026-05-05 05:08 | 15.30645 | 114.03256 | 31914 ft | 457 kts | 225° |
| 2026-05-05 05:08 | 15.25863 | 113.98907 | 31900 ft | 460 kts | 218° |
| 2026-05-05 05:09 | 15.20694 | 113.95070 | 31907 ft | 460 kts | 218° |
| 2026-05-05 05:09 | 15.15489 | 113.91212 | 31906 ft | 460 kts | 218° |
| 2026-05-05 05:10 | 15.10279 | 113.87355 | 31903 ft | 461 kts | 218° |
| 2026-05-05 05:10 | 15.05069 | 113.83493 | 31902 ft | 461 kts | 218° |
| 2026-05-05 05:11 | 14.99856 | 113.79626 | 31902 ft | 461 kts | 218° |
| 2026-05-05 05:11 | 14.94677 | 113.75786 | 31896 ft | 462 kts | 217° |
| 2026-05-05 05:12 | 14.89446 | 113.71921 | 31898 ft | 462 kts | 218° |
| 2026-05-05 05:12 | 14.84213 | 113.68060 | 31906 ft | 462 kts | 218° |
| 2026-05-05 05:13 | 14.78982 | 113.64198 | 31905 ft | 462 kts | 218° |
| 2026-05-05 05:13 | 14.73746 | 113.60333 | 31908 ft | 462 kts | 218° |
| 2026-05-05 05:14 | 14.68542 | 113.56502 | 31899 ft | 463 kts | 217° |
| 2026-05-05 05:14 | 14.63296 | 113.52631 | 31901 ft | 464 kts | 217° |
| 2026-05-05 05:15 | 14.58044 | 113.48758 | 31898 ft | 464 kts | 217° |
| 2026-05-05 05:15 | 14.52783 | 113.44885 | 31897 ft | 465 kts | 217° |
| 2026-05-05 05:16 | 14.47522 | 113.41007 | 31914 ft | 465 kts | 218° |
| 2026-05-05 05:16 | 14.42306 | 113.37155 | 31915 ft | 464 kts | 218° |
| 2026-05-05 05:17 | 14.37048 | 113.33266 | 31891 ft | 465 kts | 217° |
| 2026-05-05 05:17 | 14.31776 | 113.29377 | 31891 ft | 466 kts | 217° |
| 2026-05-05 05:18 | 14.26495 | 113.25495 | 31904 ft | 467 kts | 217° |
| 2026-05-05 05:18 | 14.21247 | 113.21625 | 31906 ft | 467 kts | 217° |
| 2026-05-05 05:19 | 14.15970 | 113.17724 | 31903 ft | 467 kts | 217° |
| 2026-05-05 05:19 | 14.10681 | 113.13828 | 31906 ft | 467 kts | 217° |
| 2026-05-05 05:20 | 14.05393 | 113.09936 | 31908 ft | 467 kts | 218° |
| 2026-05-05 05:20 | 14.00891 | 113.05288 | 31904 ft | 461 kts | 238° |
| 2026-05-05 05:20 | 13.99365 | 113.02402 | 31904 ft | 458 kts | 249° |
| 2026-05-05 05:21 | 13.98408 | 112.99289 | 31901 ft | 456 kts | 259° |
| 2026-05-05 05:21 | 13.98033 | 112.96050 | 31899 ft | 455 kts | 270° |
| 2026-05-05 05:21 | 13.98034 | 112.92787 | 31899 ft | 455 kts | 270° |
| 2026-05-05 05:22 | 13.98043 | 112.86266 | 31902 ft | 456 kts | 270° |
| 2026-05-05 05:22 | 13.98036 | 112.79736 | 31903 ft | 456 kts | 270° |
| 2026-05-05 05:23 | 13.98038 | 112.73240 | 31900 ft | 457 kts | 270° |
| 2026-05-05 05:23 | 13.98048 | 112.66703 | 31904 ft | 457 kts | 270° |
| 2026-05-05 05:24 | 13.98050 | 112.60158 | 31909 ft | 457 kts | 270° |
| 2026-05-05 05:24 | 13.98052 | 112.53611 | 31911 ft | 457 kts | 270° |
| 2026-05-05 05:25 | 13.98045 | 112.47072 | 31914 ft | 457 kts | 270° |
| 2026-05-05 05:25 | 13.98042 | 112.40572 | 31910 ft | 457 kts | 270° |
| 2026-05-05 05:26 | 13.98037 | 112.34016 | 31912 ft | 457 kts | 270° |
| 2026-05-05 05:26 | 13.98034 | 112.27470 | 31913 ft | 458 kts | 270° |
| 2026-05-05 05:27 | 13.98028 | 112.20962 | 31912 ft | 458 kts | 270° |
| 2026-05-05 05:27 | 13.98007 | 112.11132 | 31915 ft | 458 kts | 270° |
| 2026-05-05 05:28 | 13.97997 | 112.04580 | 31915 ft | 458 kts | 270° |
| 2026-05-05 05:28 | 13.97985 | 111.98025 | 31915 ft | 458 kts | 270° |
| 2026-05-05 05:29 | 13.97966 | 111.91511 | 31913 ft | 458 kts | 270° |
| 2026-05-05 05:29 | 13.97954 | 111.84962 | 31913 ft | 458 kts | 270° |
| 2026-05-05 05:30 | 13.97937 | 111.78407 | 31913 ft | 458 kts | 270° |
| 2026-05-05 05:30 | 13.97907 | 111.71847 | 31911 ft | 458 kts | 270° |
| 2026-05-05 05:31 | 13.97883 | 111.65331 | 31911 ft | 458 kts | 270° |
| 2026-05-05 05:31 | 13.97862 | 111.58769 | 31911 ft | 459 kts | 270° |
| 2026-05-05 05:32 | 13.97844 | 111.52204 | 31917 ft | 459 kts | 270° |
| 2026-05-05 05:32 | 13.97812 | 111.45639 | 31916 ft | 459 kts | 270° |
| 2026-05-05 05:33 | 13.97778 | 111.39113 | 31917 ft | 459 kts | 270° |
| 2026-05-05 05:33 | 13.97744 | 111.32545 | 31917 ft | 459 kts | 270° |
| 2026-05-05 05:34 | 13.97705 | 111.25981 | 31917 ft | 459 kts | 270° |
| 2026-05-05 05:34 | 13.97661 | 111.19417 | 31919 ft | 459 kts | 270° |
| 2026-05-05 05:35 | 13.97622 | 111.12844 | 31920 ft | 459 kts | 270° |
| 2026-05-05 05:35 | 13.97578 | 111.06313 | 31913 ft | 459 kts | 270° |
| 2026-05-05 05:36 | 13.97538 | 110.99735 | 31904 ft | 460 kts | 270° |
| 2026-05-05 05:36 | 13.97492 | 110.93148 | 31910 ft | 460 kts | 270° |
| 2026-05-05 05:37 | 13.97450 | 110.86558 | 31916 ft | 460 kts | 270° |
| 2026-05-05 05:37 | 13.97404 | 110.80008 | 31919 ft | 461 kts | 270° |
| 2026-05-05 05:38 | 13.97352 | 110.73411 | 31917 ft | 461 kts | 269° |
| 2026-05-05 05:38 | 13.97299 | 110.66815 | 31919 ft | 461 kts | 269° |
| 2026-05-05 05:39 | 13.97246 | 110.60211 | 31921 ft | 461 kts | 269° |
| 2026-05-05 05:39 | 13.97191 | 110.53650 | 31923 ft | 461 kts | 269° |
| 2026-05-05 05:40 | 13.97130 | 110.47052 | 31920 ft | 461 kts | 269° |
| 2026-05-05 05:40 | 13.97066 | 110.40448 | 31921 ft | 461 kts | 269° |
| 2026-05-05 05:41 | 13.97005 | 110.33842 | 31924 ft | 461 kts | 269° |
| 2026-05-05 05:41 | 13.96943 | 110.27282 | 31926 ft | 461 kts | 269° |
| 2026-05-05 05:42 | 13.96886 | 110.20677 | 31926 ft | 461 kts | 269° |
| 2026-05-05 05:42 | 13.96818 | 110.14072 | 31928 ft | 461 kts | 269° |
| 2026-05-05 05:43 | 13.96666 | 110.07468 | 31917 ft | 461 kts | 263° |
| 2026-05-05 05:43 | 13.96007 | 110.04239 | 31920 ft | 461 kts | 252° |
| 2026-05-05 05:43 | 13.94759 | 110.01246 | 31918 ft | 462 kts | 241° |
| 2026-05-05 05:44 | 13.92937 | 109.98530 | 31903 ft | 463 kts | 230° |
| 2026-05-05 05:44 | 13.90621 | 109.96230 | 31905 ft | 464 kts | 218° |
| 2026-05-05 05:44 | 13.85193 | 109.92613 | 31913 ft | 466 kts | 213° |
| 2026-05-05 05:45 | 13.79692 | 109.89072 | 31918 ft | 467 kts | 213° |
| 2026-05-05 05:45 | 13.74221 | 109.85559 | 31920 ft | 467 kts | 213° |
| 2026-05-05 05:46 | 13.68699 | 109.82020 | 31915 ft | 468 kts | 213° |
| 2026-05-05 05:46 | 13.63175 | 109.78474 | 31919 ft | 468 kts | 213° |
| 2026-05-05 05:47 | 13.57656 | 109.74923 | 31929 ft | 468 kts | 213° |
| 2026-05-05 05:47 | 13.52136 | 109.71377 | 31931 ft | 468 kts | 213° |
| 2026-05-05 05:48 | 13.46649 | 109.67861 | 31934 ft | 468 kts | 213° |
| 2026-05-05 05:48 | 13.41124 | 109.64333 | 31931 ft | 468 kts | 213° |
| 2026-05-05 05:49 | 13.35594 | 109.60793 | 31920 ft | 469 kts | 213° |
| 2026-05-05 05:49 | 13.30059 | 109.57243 | 31918 ft | 469 kts | 213° |
| 2026-05-05 05:50 | 13.24547 | 109.53713 | 31921 ft | 470 kts | 213° |
| 2026-05-05 05:50 | 13.18999 | 109.50167 | 31925 ft | 470 kts | 213° |
| 2026-05-05 05:51 | 13.13445 | 109.46619 | 31929 ft | 470 kts | 213° |
| 2026-05-05 05:51 | 13.07894 | 109.43070 | 31926 ft | 470 kts | 214° |
| 2026-05-05 05:52 | 13.02374 | 109.39548 | 31927 ft | 470 kts | 214° |
| 2026-05-05 05:52 | 12.96816 | 109.36009 | 31934 ft | 470 kts | 213° |
| 2026-05-05 05:53 | 12.91262 | 109.32464 | 31934 ft | 470 kts | 213° |
| 2026-05-05 05:53 | 12.85739 | 109.28943 | 31933 ft | 471 kts | 212° |
| 2026-05-05 05:54 | 12.80181 | 109.25399 | 31945 ft | 470 kts | 212° |
| 2026-05-05 05:54 | 12.74622 | 109.21858 | 31934 ft | 471 kts | 212° |
| 2026-05-05 05:55 | 12.69044 | 109.18313 | 31923 ft | 473 kts | 212° |
| 2026-05-05 05:55 | 12.63445 | 109.14757 | 31920 ft | 474 kts | 212° |
| 2026-05-05 05:56 | 12.57878 | 109.11222 | 31932 ft | 474 kts | 212° |
| 2026-05-05 05:56 | 12.52263 | 109.07661 | 31938 ft | 474 kts | 212° |
| 2026-05-05 05:57 | 12.46653 | 109.04103 | 31941 ft | 474 kts | 213° |
| 2026-05-05 05:57 | 12.41039 | 109.00543 | 31928 ft | 476 kts | 212° |
| 2026-05-05 05:58 | 12.35438 | 108.96994 | 31940 ft | 478 kts | 212° |
| 2026-05-05 05:58 | 12.29782 | 108.93406 | 31939 ft | 479 kts | 212° |
| 2026-05-05 05:59 | 12.24113 | 108.89815 | 31945 ft | 480 kts | 212° |
| 2026-05-05 05:59 | 12.18429 | 108.86225 | 31945 ft | 481 kts | 212° |
| 2026-05-05 06:00 | 12.12777 | 108.82657 | 31967 ft | 480 kts | 213° |
| 2026-05-05 06:00 | 12.07093 | 108.79060 | 31972 ft | 480 kts | 212° |
| 2026-05-05 06:01 | 12.01414 | 108.75472 | 31992 ft | 479 kts | 212° |
| 2026-05-05 06:01 | 11.95775 | 108.71906 | 31985 ft | 475 kts | 212° |
| 2026-05-05 06:02 | 11.90195 | 108.68382 | 31990 ft | 473 kts | 212° |
| 2026-05-05 06:02 | 11.85154 | 108.64127 | 31984 ft | 471 kts | 230° |
| 2026-05-05 06:03 | 11.81859 | 108.58397 | 31965 ft | 470 kts | 250° |
| 2026-05-05 06:03 | 11.80031 | 108.51990 | 31966 ft | 470 kts | 254° |
| 2026-05-05 06:04 | 11.78257 | 108.45614 | 31955 ft | 470 kts | 254° |
| 2026-05-05 06:04 | 11.76444 | 108.39193 | 31948 ft | 471 kts | 254° |
| 2026-05-05 06:05 | 11.73748 | 108.33124 | 31945 ft | 472 kts | 237° |
| 2026-05-05 06:05 | 11.69959 | 108.27655 | 31927 ft | 473 kts | 234° |
| 2026-05-05 06:06 | 11.66176 | 108.22221 | 31929 ft | 473 kts | 235° |
| 2026-05-05 06:06 | 11.62371 | 108.16749 | 31933 ft | 473 kts | 235° |
| 2026-05-05 06:07 | 11.58560 | 108.11272 | 31918 ft | 473 kts | 235° |
| 2026-05-05 06:07 | 11.54753 | 108.05802 | 31921 ft | 473 kts | 236° |
| 2026-05-05 06:08 | 11.50942 | 108.00329 | 31923 ft | 473 kts | 235° |
| 2026-05-05 06:08 | 11.47151 | 107.94894 | 31915 ft | 473 kts | 235° |
| 2026-05-05 06:09 | 11.43334 | 107.89417 | 31910 ft | 474 kts | 235° |
| 2026-05-05 06:09 | 11.39510 | 107.83935 | 31906 ft | 475 kts | 235° |
| 2026-05-05 06:10 | 11.35681 | 107.78455 | 31904 ft | 475 kts | 234° |
| 2026-05-05 06:10 | 11.31848 | 107.72970 | 31888 ft | 475 kts | 235° |
| 2026-05-05 06:11 | 11.28037 | 107.67519 | 31889 ft | 475 kts | 235° |
| 2026-05-05 06:11 | 11.24196 | 107.62030 | 31891 ft | 476 kts | 235° |
| 2026-05-05 06:12 | 11.20361 | 107.56542 | 31877 ft | 476 kts | 234° |
| 2026-05-05 06:12 | 11.16521 | 107.51057 | 31879 ft | 476 kts | 235° |
| 2026-05-05 06:13 | 11.12703 | 107.45606 | 31874 ft | 476 kts | 235° |
| 2026-05-05 06:13 | 11.08861 | 107.40120 | 31875 ft | 476 kts | 235° |
| 2026-05-05 06:14 | 11.05012 | 107.34637 | 31880 ft | 476 kts | 234° |
| 2026-05-05 06:14 | 11.01166 | 107.29156 | 31875 ft | 476 kts | 234° |
| 2026-05-05 06:15 | 10.97343 | 107.23710 | 31875 ft | 476 kts | 234° |
| 2026-05-05 06:15 | 10.93996 | 107.17928 | 31869 ft | 475 kts | 249° |
| 2026-05-05 06:16 | 10.92268 | 107.11456 | 31869 ft | 475 kts | 257° |
| 2026-05-05 06:16 | 10.90799 | 107.04905 | 31868 ft | 475 kts | 257° |
| 2026-05-05 06:17 | 10.89315 | 106.98354 | 31858 ft | 476 kts | 257° |
| 2026-05-05 06:17 | 10.87839 | 106.91832 | 31857 ft | 476 kts | 257° |
| 2026-05-05 06:18 | 10.86370 | 106.85258 | 31856 ft | 477 kts | 257° |
| 2026-05-05 06:18 | 10.84902 | 106.78679 | 31864 ft | 477 kts | 257° |
| 2026-05-05 06:19 | 10.83424 | 106.72090 | 31854 ft | 478 kts | 257° |
| 2026-05-05 06:19 | 10.81931 | 106.65538 | 31834 ft | 479 kts | 253° |
| 2026-05-05 06:20 | 10.79691 | 106.59151 | 31847 ft | 480 kts | 249° |
| 2026-05-05 06:20 | 10.77369 | 106.52774 | 31846 ft | 481 kts | 249° |
| 2026-05-05 06:21 | 10.75055 | 106.46382 | 31850 ft | 482 kts | 249° |
| 2026-05-05 06:21 | 10.72752 | 106.40028 | 31850 ft | 482 kts | 249° |
| 2026-05-05 06:22 | 10.70428 | 106.33629 | 31855 ft | 482 kts | 248° |
| 2026-05-05 06:22 | 10.68098 | 106.27242 | 31867 ft | 481 kts | 248° |
| 2026-05-05 06:23 | 10.65776 | 106.20861 | 31869 ft | 481 kts | 248° |
| 2026-05-05 06:23 | 10.63474 | 106.14533 | 31870 ft | 480 kts | 249° |
| 2026-05-05 06:24 | 10.61153 | 106.08166 | 31869 ft | 480 kts | 249° |
| 2026-05-05 06:24 | 10.58835 | 106.01807 | 31865 ft | 480 kts | 248° |
| 2026-05-05 06:25 | 10.56909 | 105.96528 | 31863 ft | 479 kts | 248° |
| 2026-05-05 06:25 | 10.54203 | 105.89147 | 31863 ft | 479 kts | 249° |
| 2026-05-05 06:26 | 10.51878 | 105.82804 | 31851 ft | 479 kts | 248° |
| 2026-05-05 06:26 | 10.49551 | 105.76448 | 31848 ft | 480 kts | 248° |
| 2026-05-05 06:27 | 10.46447 | 105.67980 | 31846 ft | 480 kts | 249° |
| 2026-05-05 06:28 | 10.43732 | 105.60589 | 31857 ft | 480 kts | 249° |
| 2026-05-05 06:28 | 10.41401 | 105.54243 | 31864 ft | 479 kts | 249° |
| 2026-05-05 06:29 | 10.39077 | 105.47905 | 31867 ft | 478 kts | 249° |
| 2026-05-05 06:29 | 10.37143 | 105.42643 | 31867 ft | 478 kts | 248° |
| 2026-05-05 06:30 | 10.34435 | 105.35291 | 31865 ft | 478 kts | 249° |
| 2026-05-05 06:30 | 10.32483 | 105.29995 | 31825 ft | 478 kts | 249° |
| 2026-05-05 06:30 | 10.31334 | 105.26874 | 31593 ft | 478 kts | 249° |
| 2026-05-05 06:31 | 10.30171 | 105.23715 | 31353 ft | 478 kts | 249° |
| 2026-05-05 06:31 | 10.29010 | 105.20557 | 31121 ft | 479 kts | 249° |
| 2026-05-05 06:31 | 10.27843 | 105.17385 | 30891 ft | 479 kts | 249° |
| 2026-05-05 06:31 | 10.26675 | 105.14216 | 30663 ft | 480 kts | 248° |
| 2026-05-05 06:32 | 10.25502 | 105.11037 | 30434 ft | 482 kts | 249° |
| 2026-05-05 06:32 | 10.23941 | 105.06814 | 30142 ft | 483 kts | 249° |
| 2026-05-05 06:32 | 10.23144 | 105.04658 | 29985 ft | 484 kts | 249° |
| 2026-05-05 06:32 | 10.21961 | 105.01455 | 29733 ft | 485 kts | 249° |
| 2026-05-05 06:33 | 10.20777 | 104.98247 | 29470 ft | 486 kts | 249° |
| 2026-05-05 06:33 | 10.19610 | 104.95081 | 29210 ft | 486 kts | 249° |
| 2026-05-05 06:33 | 10.18426 | 104.91869 | 28883 ft | 485 kts | 249° |
| 2026-05-05 06:33 | 10.17236 | 104.88653 | 27699 ft | 492 kts | 249° |
| 2026-05-05 06:34 | 10.16021 | 104.85377 | 26592 ft | 498 kts | 249° |
| 2026-05-05 06:34 | 10.14797 | 104.82077 | 25445 ft | 503 kts | 249° |
| 2026-05-05 06:34 | 10.13561 | 104.78745 | 24371 ft | 506 kts | 249° |
| 2026-05-05 06:34 | 10.12321 | 104.75401 | 23527 ft | 504 kts | 249° |
| 2026-05-05 06:35 | 10.11097 | 104.72103 | 22851 ft | 496 kts | 249° |
| 2026-05-05 06:35 | 10.09904 | 104.68889 | 22109 ft | 491 kts | 249° |
| 2026-05-05 06:35 | 10.08851 | 104.65615 | 21364 ft | 485 kts | 257° |
| 2026-05-05 06:35 | 10.08440 | 104.62242 | 20622 ft | 481 kts | 269° |
| 2026-05-05 06:36 | 10.08717 | 104.58881 | 19886 ft | 477 kts | 280° |
| 2026-05-05 06:36 | 10.09655 | 104.55671 | 19178 ft | 473 kts | 292° |
| 2026-05-05 06:36 | 10.11168 | 104.52756 | 18310 ft | 460 kts | 303° |
| 2026-05-05 06:36 | 10.13073 | 104.50190 | 16703 ft | 451 kts | 309° |
| 2026-05-05 06:37 | 10.15008 | 104.47746 | 15742 ft | 432 kts | 309° |
| 2026-05-05 06:37 | 10.16835 | 104.45453 | 15245 ft | 407 kts | 309° |
| 2026-05-05 06:37 | 10.18607 | 104.43235 | 14601 ft | 412 kts | 309° |
| 2026-05-05 06:37 | 10.20420 | 104.40957 | 13938 ft | 416 kts | 309° |
| 2026-05-05 06:38 | 10.22231 | 104.38667 | 13244 ft | 416 kts | 309° |
| 2026-05-05 06:38 | 10.23824 | 104.36228 | 12622 ft | 414 kts | 298° |
| 2026-05-05 06:38 | 10.24959 | 104.33557 | 12002 ft | 412 kts | 288° |
| 2026-05-05 06:38 | 10.25611 | 104.30740 | 11413 ft | 408 kts | 277° |
| 2026-05-05 06:39 | 10.25891 | 104.27924 | 11236 ft | 393 kts | 275° |
| 2026-05-05 06:39 | 10.26157 | 104.25218 | 11114 ft | 377 kts | 276° |
| 2026-05-05 06:39 | 10.26421 | 104.22660 | 11000 ft | 362 kts | 276° |
| 2026-05-05 06:39 | 10.26681 | 104.20166 | 10884 ft | 349 kts | 276° |
| 2026-05-05 06:40 | 10.26930 | 104.17760 | 10762 ft | 336 kts | 276° |
| 2026-05-05 06:40 | 10.27165 | 104.15440 | 10639 ft | 325 kts | 276° |
| 2026-05-05 06:40 | 10.27388 | 104.13199 | 10403 ft | 313 kts | 276° |
| 2026-05-05 06:40 | 10.27600 | 104.11033 | 10261 ft | 301 kts | 276° |
| 2026-05-05 06:41 | 10.27804 | 104.08965 | 10137 ft | 290 kts | 276° |
| 2026-05-05 06:41 | 10.28004 | 104.06955 | 10008 ft | 283 kts | 276° |
| 2026-05-05 06:41 | 10.28204 | 104.04958 | 9671 ft | 287 kts | 276° |
| 2026-05-05 06:41 | 10.28402 | 104.02966 | 9257 ft | 288 kts | 276° |
| 2026-05-05 06:42 | 10.28604 | 104.00940 | 8880 ft | 289 kts | 276° |
| 2026-05-05 06:42 | 10.28807 | 103.98913 | 8479 ft | 289 kts | 276° |
| 2026-05-05 06:42 | 10.29010 | 103.96893 | 8088 ft | 285 kts | 276° |
| 2026-05-05 06:42 | 10.29208 | 103.94912 | 7726 ft | 279 kts | 276° |
| 2026-05-05 06:43 | 10.29403 | 103.92967 | 7362 ft | 275 kts | 276° |
| 2026-05-05 06:43 | 10.29593 | 103.91046 | 7005 ft | 272 kts | 276° |
| 2026-05-05 06:43 | 10.29779 | 103.89158 | 6652 ft | 272 kts | 276° |
| 2026-05-05 06:43 | 10.29967 | 103.87255 | 6314 ft | 270 kts | 276° |
| 2026-05-05 06:44 | 10.30118 | 103.85365 | 5937 ft | 268 kts | 268° |
| 2026-05-05 06:44 | 10.29632 | 103.83576 | 5573 ft | 263 kts | 237° |
| 2026-05-05 06:44 | 10.28391 | 103.82286 | 5205 ft | 252 kts | 207° |
| 2026-05-05 06:44 | 10.26772 | 103.81758 | 4848 ft | 241 kts | 182° |
| 2026-05-05 06:45 | 10.25132 | 103.81595 | 4461 ft | 232 kts | 181° |
| 2026-05-05 06:45 | 10.23550 | 103.81439 | 4115 ft | 220 kts | 181° |
| 2026-05-05 06:45 | 10.22117 | 103.81292 | 3949 ft | 197 kts | 181° |
| 2026-05-05 06:45 | 10.20768 | 103.81198 | 3494 ft | 191 kts | 169° |
| 2026-05-05 06:46 | 10.19578 | 103.81639 | 3131 ft | 183 kts | 140° |
| 2026-05-05 06:46 | 10.18780 | 103.82601 | 2867 ft | 178 kts | 113° |
| 2026-05-05 06:46 | 10.18515 | 103.83746 | 2651 ft | 170 kts | 96° |
| 2026-05-05 06:46 | 10.18401 | 103.84921 | 2442 ft | 165 kts | 96° |
| 2026-05-05 06:47 | 10.18291 | 103.86058 | 2238 ft | 160 kts | 95° |
| 2026-05-05 06:47 | 10.18181 | 103.87175 | 2058 ft | 155 kts | 96° |
| 2026-05-05 06:47 | 10.18077 | 103.88239 | 1833 ft | 149 kts | 96° |
| 2026-05-05 06:47 | 10.17975 | 103.89275 | 1655 ft | 146 kts | 94° |
| 2026-05-05 06:48 | 10.17873 | 103.90311 | 1455 ft | 148 kts | 95° |
| 2026-05-05 06:48 | 10.17771 | 103.91341 | 1270 ft | 146 kts | 96° |
| 2026-05-05 06:48 | 10.17665 | 103.92360 | 1066 ft | 147 kts | 95° |
| 2026-05-05 06:48 | 10.17566 | 103.93381 | 866 ft | 144 kts | 94° |
| 2026-05-05 06:49 | 10.17496 | 103.94405 | 706 ft | 145 kts | 96° |
| 2026-05-05 06:49 | 10.17365 | 103.95427 | 570 ft | 145 kts | 97° |
| 2026-05-05 06:49 | 10.17273 | 103.96442 | 407 ft | 142 kts | 96° |
| 2026-05-05 06:49 | 10.17168 | 103.97467 | 230 ft | 146 kts | 96° |
| 2026-05-05 06:50 | 10.17068 | 103.98487 | 83 ft | 137 kts | 96° |
| 2026-05-05 06:50 | 10.16973 | 103.99501 | 326 ft | 155 kts | 95° |
| 2026-05-05 06:50 | 10.16863 | 104.00603 | 1096 ft | 159 kts | 96° |
| 2026-05-05 06:50 | 10.16730 | 104.01753 | 1794 ft | 170 kts | 95° |
| 2026-05-05 06:51 | 10.16570 | 104.03014 | 2071 ft | 191 kts | 104° |
| 2026-05-05 06:51 | 10.15796 | 104.04183 | 2320 ft | 213 kts | 141° |
| 2026-05-05 06:51 | 10.14390 | 104.04693 | 2777 ft | 224 kts | 175° |
| 2026-05-05 06:51 | 10.12850 | 104.04352 | 2956 ft | 232 kts | 206° |
| 2026-05-05 06:52 | 10.11699 | 104.03216 | 2984 ft | 235 kts | 240° |
| 2026-05-05 06:52 | 10.11311 | 104.01618 | 2980 ft | 236 kts | 272° |
| 2026-05-05 06:52 | 10.11463 | 103.99986 | 2980 ft | 235 kts | 278° |
| 2026-05-05 06:52 | 10.11715 | 103.98337 | 2988 ft | 238 kts | 280° |
| 2026-05-05 06:53 | 10.11970 | 103.96682 | 2981 ft | 236 kts | 279° |
| 2026-05-05 06:53 | 10.12228 | 103.95034 | 2977 ft | 237 kts | 279° |
| 2026-05-05 06:53 | 10.12479 | 103.93385 | 2985 ft | 236 kts | 279° |
| 2026-05-05 06:53 | 10.12730 | 103.91742 | 2982 ft | 236 kts | 279° |
| 2026-05-05 06:54 | 10.12988 | 103.90094 | 2980 ft | 237 kts | 279° |
| 2026-05-05 06:54 | 10.13242 | 103.88444 | 2983 ft | 236 kts | 279° |
| 2026-05-05 06:54 | 10.13493 | 103.86800 | 2982 ft | 235 kts | 279° |
| 2026-05-05 06:54 | 10.13736 | 103.85181 | 2984 ft | 236 kts | 279° |
| 2026-05-05 06:55 | 10.13985 | 103.83529 | 2976 ft | 237 kts | 279° |
| 2026-05-05 06:55 | 10.14239 | 103.81875 | 2981 ft | 237 kts | 279° |
| 2026-05-05 06:55 | 10.14578 | 103.80246 | 2930 ft | 235 kts | 294° |
| 2026-05-05 06:55 | 10.15619 | 103.79060 | 2606 ft | 225 kts | 337° |
| 2026-05-05 06:56 | 10.17080 | 103.78900 | 2376 ft | 205 kts | 20° |
| 2026-05-05 06:56 | 10.18199 | 103.79623 | 2260 ft | 183 kts | 51° |
| 2026-05-05 06:56 | 10.18722 | 103.80714 | 2132 ft | 166 kts | 81° |
| 2026-05-05 06:56 | 10.18706 | 103.81855 | 2057 ft | 161 kts | 96° |
| 2026-05-05 06:57 | 10.18595 | 103.82978 | 1982 ft | 158 kts | 96° |
| 2026-05-05 06:57 | 10.18487 | 103.84076 | 1978 ft | 158 kts | 96° |
| 2026-05-05 06:57 | 10.18377 | 103.85190 | 1979 ft | 158 kts | 96° |
| 2026-05-05 06:57 | 10.18268 | 103.86301 | 1979 ft | 158 kts | 96° |
| 2026-05-05 06:58 | 10.18158 | 103.87416 | 1917 ft | 160 kts | 96° |
| 2026-05-05 06:58 | 10.18048 | 103.88532 | 1779 ft | 154 kts | 95° |
| 2026-05-05 06:58 | 10.17945 | 103.89582 | 1595 ft | 148 kts | 96° |
| 2026-05-05 06:58 | 10.17842 | 103.90618 | 1405 ft | 147 kts | 94° |
| 2026-05-05 06:59 | 10.17742 | 103.91632 | 1214 ft | 149 kts | 96° |
| 2026-05-05 06:59 | 10.17640 | 103.92670 | 1027 ft | 147 kts | 95° |
| 2026-05-05 06:59 | 10.17536 | 103.93692 | 838 ft | 147 kts | 96° |
| 2026-05-05 06:59 | 10.17426 | 103.94711 | 621 ft | 145 kts | 96° |
| 2026-05-05 07:00 | 10.17339 | 103.95720 | 470 ft | 144 kts | 96° |
| 2026-05-05 07:00 | 10.17236 | 103.96737 | 321 ft | 145 kts | 96° |
| 2026-05-05 07:00 | 10.17137 | 103.97770 | 146 ft | 147 kts | 95° |
| 2026-05-05 07:00 | 10.17036 | 103.98764 | 66 ft | 125 kts | 95° |
| 2026-05-05 07:01 | 10.16982 | 103.99336 | 62 ft | 36 kts | 96° |
| 2026-05-05 07:01 | 10.16968 | 103.99484 | 66 ft | 19 kts | 96° |
| 2026-05-05 07:01 | 10.16954 | 103.99613 | 65 ft | 18 kts | 96° |
| 2026-05-05 07:01 | 10.16942 | 103.99742 | 63 ft | 18 kts | 95° |
| 2026-05-05 07:02 | 10.16917 | 103.99871 | 66 ft | 19 kts | 107° |
| 2026-05-05 07:02 | 10.16860 | 103.99996 | 61 ft | 21 kts | 122° |
| 2026-05-05 07:02 | 10.16809 | 104.00070 | 60 ft | 10 kts | 125° |
| 2026-05-05 07:02 | 10.16767 | 104.00127 | 63 ft | 11 kts | 130° |
| 2026-05-05 07:03 | 10.16707 | 104.00158 | 64 ft | 11 kts | 183° |
| 2026-05-05 07:03 | 10.16629 | 104.00156 | 59 ft | 12 kts | 187° |
| 2026-05-05 07:03 | 10.16544 | 104.00146 | 63 ft | 13 kts | 186° |
| 2026-05-05 07:03 | 10.16485 | 104.00098 | 59 ft | 12 kts | 261° |
| 2026-05-05 07:04 | 10.16494 | 104.00013 | 66 ft | 13 kts | 276° |
| 2026-05-05 07:04 | 10.16496 | 103.99994 | 66 ft | 2 kts | 276° |
| 2026-05-05 07:04 | 10.16499 | 103.99964 | 59 ft | 6 kts | 276° |
| 2026-05-05 07:04 | 10.16506 | 103.99903 | 64 ft | 11 kts | 276° |
| 2026-05-05 07:05 | 10.16516 | 103.99812 | 63 ft | 15 kts | 276° |
| 2026-05-05 07:05 | 10.16502 | 103.99724 | 62 ft | 12 kts | 206° |
| 2026-05-05 07:05 | 10.16473 | 103.99718 | 66 ft | 5 kts | 188° |
| 2026-05-05 07:05 | 10.16444 | 103.99715 | 58 ft | 0 kts | 186° |